sensor_id;sensor_type;location;lat;lon;timestamp;temperature;humidity
46117;DHT22;32591;48.102;11.772;2023-03-24T00:00:32;12.80;99.90
46117;DHT22;32591;48.102;11.772;2023-03-24T00:02:59;12.70;99.90
46117;DHT22;32591;48.102;11.772;2023-03-24T00:05:27;12.80;99.90
46117;DHT22;32591;48.102;11.772;2023-03-24T00:07:55;12.70;99.90
46117;DHT22;32591;48.102;11.772;2023-03-24T00:10:24;12.80;99.90
46117;DHT22;32591;48.102;11.772;2023-03-24T00:12:56;12.80;99.90
46117;DHT22;32591;48.102;11.772;2023-03-24T00:15:24;12.80;99.90
46117;DHT22;32591;48.102;11.772;2023-03-24T00:17:52;12.80;99.90
46117;DHT22;32591;48.102;11.772;2023-03-24T00:20:23;12.80;99.90
46117;DHT22;32591;48.102;11.772;2023-03-24T00:22:52;12.80;99.90
46117;DHT22;32591;48.102;11.772;2023-03-24T00:25:23;12.80;99.90
46117;DHT22;32591;48.102;11.772;2023-03-24T00:27:52;12.80;99.90
46117;DHT22;32591;48.102;11.772;2023-03-24T00:30:20;12.70;99.90
46117;DHT22;32591;48.102;11.772;2023-03-24T00:32:47;12.80;99.90
46117;DHT22;32591;48.102;11.772;2023-03-24T00:35:16;12.80;99.90
46117;DHT22;32591;48.102;11.772;2023-03-24T00:37:43;12.70;99.90
46117;DHT22;32591;48.102;11.772;2023-03-24T00:40:13;12.60;99.90
46117;DHT22;32591;48.102;11.772;2023-03-24T00:42:42;12.60;99.90
46117;DHT22;32591;48.102;11.772;2023-03-24T00:45:12;12.60;99.90
46117;DHT22;32591;48.102;11.772;2023-03-24T00:47:40;12.50;99.90
46117;DHT22;32591;48.102;11.772;2023-03-24T00:50:12;12.60;99.90
46117;DHT22;32591;48.102;11.772;2023-03-24T00:52:43;12.50;99.90
46117;DHT22;32591;48.102;11.772;2023-03-24T00:55:13;12.40;99.90
46117;DHT22;32591;48.102;11.772;2023-03-24T00:57:41;12.40;99.90
46117;DHT22;32591;48.102;11.772;2023-03-24T01:00:15;12.30;99.90
46117;DHT22;32591;48.102;11.772;2023-03-24T01:02:45;12.30;99.90
46117;DHT22;32591;48.102;11.772;2023-03-24T01:05:13;12.40;99.90
46117;DHT22;32591;48.102;11.772;2023-03-24T01:07:43;12.40;99.90
46117;DHT22;32591;48.102;11.772;2023-03-24T01:10:12;12.40;99.90
46117;DHT22;32591;48.102;11.772;2023-03-24T01:12:40;12.50;99.90
46117;DHT22;32591;48.102;11.772;2023-03-24T01:15:11;12.50;99.90
46117;DHT22;32591;48.102;11.772;2023-03-24T01:17:40;12.50;99.90
46117;DHT22;32591;48.102;11.772;2023-03-24T01:20:09;12.50;99.90
46117;DHT22;32591;48.102;11.772;2023-03-24T01:22:37;12.50;99.90
46117;DHT22;32591;48.102;11.772;2023-03-24T01:25:09;12.50;99.90
46117;DHT22;32591;48.102;11.772;2023-03-24T01:27:38;12.50;99.90
46117;DHT22;32591;48.102;11.772;2023-03-24T01:30:06;12.50;99.90
46117;DHT22;32591;48.102;11.772;2023-03-24T01:32:33;12.50;99.90
46117;DHT22;32591;48.102;11.772;2023-03-24T01:35:00;12.50;99.90
46117;DHT22;32591;48.102;11.772;2023-03-24T01:37:27;12.60;99.90
46117;DHT22;32591;48.102;11.772;2023-03-24T01:39:54;12.50;99.90
46117;DHT22;32591;48.102;11.772;2023-03-24T01:42:24;12.40;99.90
46117;DHT22;32591;48.102;11.772;2023-03-24T01:44:56;12.40;99.90
46117;DHT22;32591;48.102;11.772;2023-03-24T01:47:25;12.40;99.90
46117;DHT22;32591;48.102;11.772;2023-03-24T01:49:54;12.40;99.90
46117;DHT22;32591;48.102;11.772;2023-03-24T01:52:27;12.40;99.90
46117;DHT22;32591;48.102;11.772;2023-03-24T01:54:58;12.40;99.90
46117;DHT22;32591;48.102;11.772;2023-03-24T01:57:30;12.40;99.90
46117;DHT22;32591;48.102;11.772;2023-03-24T02:00:07;12.40;99.90
46117;DHT22;32591;48.102;11.772;2023-03-24T02:02:37;12.40;99.90
46117;DHT22;32591;48.102;11.772;2023-03-24T02:05:07;12.30;99.90
46117;DHT22;32591;48.102;11.772;2023-03-24T02:07:38;12.30;99.90
46117;DHT22;32591;48.102;11.772;2023-03-24T02:10:10;12.30;99.90
46117;DHT22;32591;48.102;11.772;2023-03-24T02:12:43;12.30;99.90
46117;DHT22;32591;48.102;11.772;2023-03-24T02:15:13;12.30;99.90
46117;DHT22;32591;48.102;11.772;2023-03-24T02:18:02;12.20;99.90
46117;DHT22;32591;48.102;11.772;2023-03-24T02:21:15;12.20;99.90
46117;DHT22;32591;48.102;11.772;2023-03-24T02:27:27;12.20;99.90
46117;DHT22;32591;48.102;11.772;2023-03-24T02:30:47;12.10;99.90
46117;DHT22;32591;48.102;11.772;2023-03-24T02:37:15;12.00;99.90
46117;DHT22;32591;48.102;11.772;2023-03-24T02:40:34;12.10;99.90
46117;DHT22;32591;48.102;11.772;2023-03-24T02:43:16;12.10;99.90
46117;DHT22;32591;48.102;11.772;2023-03-24T02:45:58;12.10;99.90
46117;DHT22;32591;48.102;11.772;2023-03-24T02:48:33;12.10;99.90
46117;DHT22;32591;48.102;11.772;2023-03-24T02:51:07;12.10;99.90
46117;DHT22;32591;48.102;11.772;2023-03-24T02:53:42;12.10;99.90
46117;DHT22;32591;48.102;11.772;2023-03-24T02:56:20;12.10;99.90
46117;DHT22;32591;48.102;11.772;2023-03-24T02:58:54;12.10;99.90
46117;DHT22;32591;48.102;11.772;2023-03-24T03:01:28;12.00;99.90
46117;DHT22;32591;48.102;11.772;2023-03-24T03:04:00;12.00;99.90
46117;DHT22;32591;48.102;11.772;2023-03-24T03:06:30;11.90;99.90
46117;DHT22;32591;48.102;11.772;2023-03-24T03:09:05;12.10;99.90
46117;DHT22;32591;48.102;11.772;2023-03-24T03:11:36;12.10;99.90
46117;DHT22;32591;48.102;11.772;2023-03-24T03:14:07;12.10;99.90
46117;DHT22;32591;48.102;11.772;2023-03-24T03:16:38;12.10;99.90
46117;DHT22;32591;48.102;11.772;2023-03-24T03:19:11;12.10;99.90
46117;DHT22;32591;48.102;11.772;2023-03-24T03:21:45;12.10;99.90
46117;DHT22;32591;48.102;11.772;2023-03-24T03:24:18;11.90;99.90
46117;DHT22;32591;48.102;11.772;2023-03-24T03:26:54;11.80;99.90
46117;DHT22;32591;48.102;11.772;2023-03-24T03:29:27;11.90;99.90
46117;DHT22;32591;48.102;11.772;2023-03-24T03:32:00;11.80;99.90
46117;DHT22;32591;48.102;11.772;2023-03-24T03:34:36;11.90;99.90
46117;DHT22;32591;48.102;11.772;2023-03-24T03:37:10;11.90;99.90
46117;DHT22;32591;48.102;11.772;2023-03-24T03:39:43;11.90;99.90
46117;DHT22;32591;48.102;11.772;2023-03-24T03:42:14;11.90;99.90
46117;DHT22;32591;48.102;11.772;2023-03-24T03:44:41;12.00;99.90
46117;DHT22;32591;48.102;11.772;2023-03-24T03:47:09;11.90;99.90
46117;DHT22;32591;48.102;11.772;2023-03-24T03:49:36;12.00;99.90
46117;DHT22;32591;48.102;11.772;2023-03-24T03:52:04;12.00;99.90
46117;DHT22;32591;48.102;11.772;2023-03-24T03:54:31;12.00;99.90
46117;DHT22;32591;48.102;11.772;2023-03-24T03:56:59;11.90;99.90
46117;DHT22;32591;48.102;11.772;2023-03-24T03:59:29;12.00;99.90
46117;DHT22;32591;48.102;11.772;2023-03-24T04:02:01;12.10;99.90
46117;DHT22;32591;48.102;11.772;2023-03-24T04:04:56;12.00;99.90
46117;DHT22;32591;48.102;11.772;2023-03-24T04:08:02;12.00;99.90
46117;DHT22;32591;48.102;11.772;2023-03-24T04:13:41;11.90;99.90
46117;DHT22;32591;48.102;11.772;2023-03-24T04:16:21;11.90;99.90
46117;DHT22;32591;48.102;11.772;2023-03-24T04:19:04;11.90;99.90
46117;DHT22;32591;48.102;11.772;2023-03-24T04:21:46;11.90;99.90
46117;DHT22;32591;48.102;11.772;2023-03-24T04:24:28;11.80;99.90
46117;DHT22;32591;48.102;11.772;2023-03-24T04:27:06;11.70;99.90
46117;DHT22;32591;48.102;11.772;2023-03-24T04:29:39;11.50;99.90
46117;DHT22;32591;48.102;11.772;2023-03-24T04:32:25;11.40;99.90
46117;DHT22;32591;48.102;11.772;2023-03-24T04:34:59;11.50;99.90
46117;DHT22;32591;48.102;11.772;2023-03-24T04:37:31;11.60;99.90
46117;DHT22;32591;48.102;11.772;2023-03-24T04:40:05;11.50;99.90
46117;DHT22;32591;48.102;11.772;2023-03-24T04:42:37;11.60;99.90
46117;DHT22;32591;48.102;11.772;2023-03-24T04:45:07;11.60;99.90
46117;DHT22;32591;48.102;11.772;2023-03-24T04:47:40;11.60;99.90
46117;DHT22;32591;48.102;11.772;2023-03-24T04:50:11;11.70;99.90
46117;DHT22;32591;48.102;11.772;2023-03-24T04:52:40;11.70;99.90
46117;DHT22;32591;48.102;11.772;2023-03-24T04:55:28;11.70;99.90
46117;DHT22;32591;48.102;11.772;2023-03-24T04:58:00;11.80;99.90
46117;DHT22;32591;48.102;11.772;2023-03-24T05:00:27;11.80;99.90
46117;DHT22;32591;48.102;11.772;2023-03-24T05:02:57;11.80;99.90
46117;DHT22;32591;48.102;11.772;2023-03-24T05:05:24;11.80;99.90
46117;DHT22;32591;48.102;11.772;2023-03-24T05:07:51;11.80;99.90
46117;DHT22;32591;48.102;11.772;2023-03-24T05:10:19;11.70;99.90
46117;DHT22;32591;48.102;11.772;2023-03-24T05:12:46;11.70;99.90
46117;DHT22;32591;48.102;11.772;2023-03-24T05:15:13;11.70;99.90
46117;DHT22;32591;48.102;11.772;2023-03-24T05:17:41;11.60;99.90
46117;DHT22;32591;48.102;11.772;2023-03-24T05:20:10;11.50;99.90
46117;DHT22;32591;48.102;11.772;2023-03-24T05:22:37;11.60;99.90
46117;DHT22;32591;48.102;11.772;2023-03-24T05:25:05;11.60;99.90
46117;DHT22;32591;48.102;11.772;2023-03-24T05:27:38;11.50;99.90
46117;DHT22;32591;48.102;11.772;2023-03-24T05:30:06;11.60;99.90
46117;DHT22;32591;48.102;11.772;2023-03-24T05:32:34;11.60;99.90
46117;DHT22;32591;48.102;11.772;2023-03-24T05:35:02;11.70;99.90
46117;DHT22;32591;48.102;11.772;2023-03-24T05:37:31;11.70;99.90
46117;DHT22;32591;48.102;11.772;2023-03-24T05:39:58;11.80;99.90
46117;DHT22;32591;48.102;11.772;2023-03-24T05:42:25;11.70;99.90
46117;DHT22;32591;48.102;11.772;2023-03-24T05:44:52;11.70;99.90
46117;DHT22;32591;48.102;11.772;2023-03-24T05:47:19;11.70;99.90
46117;DHT22;32591;48.102;11.772;2023-03-24T05:49:46;11.70;99.90
46117;DHT22;32591;48.102;11.772;2023-03-24T05:52:13;11.60;99.90
46117;DHT22;32591;48.102;11.772;2023-03-24T05:54:42;11.50;99.90
46117;DHT22;32591;48.102;11.772;2023-03-24T05:57:11;11.50;99.90
46117;DHT22;32591;48.102;11.772;2023-03-24T05:59:40;11.60;99.90
46117;DHT22;32591;48.102;11.772;2023-03-24T06:02:07;11.70;99.90
46117;DHT22;32591;48.102;11.772;2023-03-24T06:04:35;11.70;99.90
46117;DHT22;32591;48.102;11.772;2023-03-24T06:07:02;11.70;99.90
46117;DHT22;32591;48.102;11.772;2023-03-24T06:09:30;11.80;99.90
46117;DHT22;32591;48.102;11.772;2023-03-24T06:12:02;11.80;99.90
46117;DHT22;32591;48.102;11.772;2023-03-24T06:14:29;11.80;99.90
46117;DHT22;32591;48.102;11.772;2023-03-24T06:16:58;11.90;99.90
46117;DHT22;32591;48.102;11.772;2023-03-24T06:19:25;11.90;99.90
46117;DHT22;32591;48.102;11.772;2023-03-24T06:21:55;12.00;99.90
46117;DHT22;32591;48.102;11.772;2023-03-24T06:24:27;12.00;99.90
46117;DHT22;32591;48.102;11.772;2023-03-24T06:26:54;12.10;99.90
46117;DHT22;32591;48.102;11.772;2023-03-24T06:29:28;12.10;99.90
46117;DHT22;32591;48.102;11.772;2023-03-24T06:31:55;12.20;99.90
46117;DHT22;32591;48.102;11.772;2023-03-24T06:34:22;12.20;99.90
46117;DHT22;32591;48.102;11.772;2023-03-24T06:36:50;12.20;99.90
46117;DHT22;32591;48.102;11.772;2023-03-24T06:39:17;12.30;99.90
46117;DHT22;32591;48.102;11.772;2023-03-24T06:41:44;12.40;99.90
46117;DHT22;32591;48.102;11.772;2023-03-24T06:44:11;12.30;99.90
46117;DHT22;32591;48.102;11.772;2023-03-24T06:46:40;12.20;99.90
46117;DHT22;32591;48.102;11.772;2023-03-24T06:49:07;12.10;99.90
46117;DHT22;32591;48.102;11.772;2023-03-24T06:51:34;12.00;99.90
46117;DHT22;32591;48.102;11.772;2023-03-24T06:54:01;12.00;99.90
46117;DHT22;32591;48.102;11.772;2023-03-24T06:56:28;12.00;99.90
46117;DHT22;32591;48.102;11.772;2023-03-24T06:58:56;12.10;99.90
46117;DHT22;32591;48.102;11.772;2023-03-24T07:01:23;12.20;99.90
46117;DHT22;32591;48.102;11.772;2023-03-24T07:03:51;12.40;99.90
46117;DHT22;32591;48.102;11.772;2023-03-24T07:06:19;12.50;99.90
46117;DHT22;32591;48.102;11.772;2023-03-24T07:08:47;12.50;99.90
46117;DHT22;32591;48.102;11.772;2023-03-24T07:11:14;12.60;99.90
46117;DHT22;32591;48.102;11.772;2023-03-24T07:13:41;12.60;99.90
46117;DHT22;32591;48.102;11.772;2023-03-24T07:16:08;12.70;99.90
46117;DHT22;32591;48.102;11.772;2023-03-24T07:18:35;12.80;99.90
46117;DHT22;32591;48.102;11.772;2023-03-24T07:21:04;12.70;99.90
46117;DHT22;32591;48.102;11.772;2023-03-24T07:23:31;12.70;99.90
46117;DHT22;32591;48.102;11.772;2023-03-24T07:25:59;12.50;99.90
46117;DHT22;32591;48.102;11.772;2023-03-24T07:28:26;12.30;99.90
46117;DHT22;32591;48.102;11.772;2023-03-24T07:30:53;12.30;99.90
46117;DHT22;32591;48.102;11.772;2023-03-24T07:33:20;12.30;99.90
46117;DHT22;32591;48.102;11.772;2023-03-24T07:35:48;12.20;99.90
46117;DHT22;32591;48.102;11.772;2023-03-24T07:38:21;12.30;99.90
46117;DHT22;32591;48.102;11.772;2023-03-24T07:40:48;12.30;99.90
46117;DHT22;32591;48.102;11.772;2023-03-24T07:43:15;12.40;99.90
46117;DHT22;32591;48.102;11.772;2023-03-24T07:45:43;12.60;99.90
46117;DHT22;32591;48.102;11.772;2023-03-24T07:48:10;12.60;99.90
46117;DHT22;32591;48.102;11.772;2023-03-24T07:50:37;12.80;99.90
46117;DHT22;32591;48.102;11.772;2023-03-24T07:53:04;12.70;99.90
46117;DHT22;32591;48.102;11.772;2023-03-24T07:55:35;12.60;99.90
46117;DHT22;32591;48.102;11.772;2023-03-24T07:58:03;12.60;99.90
46117;DHT22;32591;48.102;11.772;2023-03-24T08:00:30;12.40;99.90
46117;DHT22;32591;48.102;11.772;2023-03-24T08:02:58;12.40;99.90
46117;DHT22;32591;48.102;11.772;2023-03-24T08:05:28;12.40;99.90
46117;DHT22;32591;48.102;11.772;2023-03-24T08:07:56;12.40;99.90
46117;DHT22;32591;48.102;11.772;2023-03-24T08:10:26;12.50;99.90
46117;DHT22;32591;48.102;11.772;2023-03-24T08:12:55;12.50;99.90
46117;DHT22;32591;48.102;11.772;2023-03-24T08:15:23;12.50;99.90
46117;DHT22;32591;48.102;11.772;2023-03-24T08:17:51;12.60;99.90
46117;DHT22;32591;48.102;11.772;2023-03-24T08:20:21;12.60;99.90
46117;DHT22;32591;48.102;11.772;2023-03-24T08:22:49;12.70;99.90
46117;DHT22;32591;48.102;11.772;2023-03-24T08:25:20;12.70;99.90
46117;DHT22;32591;48.102;11.772;2023-03-24T08:27:49;12.80;99.90
46117;DHT22;32591;48.102;11.772;2023-03-24T08:30:19;12.80;99.90
46117;DHT22;32591;48.102;11.772;2023-03-24T08:32:49;13.00;99.90
46117;DHT22;32591;48.102;11.772;2023-03-24T08:35:19;13.00;99.90
46117;DHT22;32591;48.102;11.772;2023-03-24T08:37:47;13.10;99.90
46117;DHT22;32591;48.102;11.772;2023-03-24T08:40:16;13.20;99.90
46117;DHT22;32591;48.102;11.772;2023-03-24T08:42:47;13.30;99.90
46117;DHT22;32591;48.102;11.772;2023-03-24T08:45:17;13.40;99.90
46117;DHT22;32591;48.102;11.772;2023-03-24T08:47:46;13.40;99.90
46117;DHT22;32591;48.102;11.772;2023-03-24T08:50:15;13.50;99.90
46117;DHT22;32591;48.102;11.772;2023-03-24T08:52:42;13.60;99.90
46117;DHT22;32591;48.102;11.772;2023-03-24T08:55:12;13.60;99.90
46117;DHT22;32591;48.102;11.772;2023-03-24T08:57:39;13.60;99.90
46117;DHT22;32591;48.102;11.772;2023-03-24T09:00:07;13.60;99.90
46117;DHT22;32591;48.102;11.772;2023-03-24T09:02:40;13.50;99.90
46117;DHT22;32591;48.102;11.772;2023-03-24T09:05:07;13.40;99.90
46117;DHT22;32591;48.102;11.772;2023-03-24T09:07:35;13.50;99.90
46117;DHT22;32591;48.102;11.772;2023-03-24T09:10:03;13.50;99.90
46117;DHT22;32591;48.102;11.772;2023-03-24T09:12:31;13.50;99.90
46117;DHT22;32591;48.102;11.772;2023-03-24T09:14:58;13.60;99.90
46117;DHT22;32591;48.102;11.772;2023-03-24T09:17:25;13.50;99.90
46117;DHT22;32591;48.102;11.772;2023-03-24T09:19:53;13.50;99.90
46117;DHT22;32591;48.102;11.772;2023-03-24T09:22:20;13.60;99.90
46117;DHT22;32591;48.102;11.772;2023-03-24T09:24:47;13.60;99.90
46117;DHT22;32591;48.102;11.772;2023-03-24T09:27:14;13.60;99.90
46117;DHT22;32591;48.102;11.772;2023-03-24T09:29:41;13.70;99.90
46117;DHT22;32591;48.102;11.772;2023-03-24T09:32:09;13.80;99.90
46117;DHT22;32591;48.102;11.772;2023-03-24T09:34:36;13.90;99.90
46117;DHT22;32591;48.102;11.772;2023-03-24T09:37:04;13.90;99.90
46117;DHT22;32591;48.102;11.772;2023-03-24T09:39:34;13.90;99.90
46117;DHT22;32591;48.102;11.772;2023-03-24T09:42:03;14.00;99.90
46117;DHT22;32591;48.102;11.772;2023-03-24T09:44:34;14.00;99.90
46117;DHT22;32591;48.102;11.772;2023-03-24T09:47:05;14.00;99.90
46117;DHT22;32591;48.102;11.772;2023-03-24T09:49:41;13.90;99.90
46117;DHT22;32591;48.102;11.772;2023-03-24T09:52:12;13.80;99.90
46117;DHT22;32591;48.102;11.772;2023-03-24T09:54:45;13.80;99.90
46117;DHT22;32591;48.102;11.772;2023-03-24T09:57:19;13.80;99.90
46117;DHT22;32591;48.102;11.772;2023-03-24T09:59:48;13.80;99.90
46117;DHT22;32591;48.102;11.772;2023-03-24T10:02:17;13.70;99.90
46117;DHT22;32591;48.102;11.772;2023-03-24T10:04:46;13.70;99.90
46117;DHT22;32591;48.102;11.772;2023-03-24T10:07:20;13.60;99.90
46117;DHT22;32591;48.102;11.772;2023-03-24T10:09:54;13.40;99.90
46117;DHT22;32591;48.102;11.772;2023-03-24T10:12:31;13.40;99.90
46117;DHT22;32591;48.102;11.772;2023-03-24T10:15:13;13.30;99.90
46117;DHT22;32591;48.102;11.772;2023-03-24T10:17:51;13.30;99.90
46117;DHT22;32591;48.102;11.772;2023-03-24T10:20:32;13.20;99.90
46117;DHT22;32591;48.102;11.772;2023-03-24T10:23:14;13.10;99.90
46117;DHT22;32591;48.102;11.772;2023-03-24T10:25:50;13.10;99.90
46117;DHT22;32591;48.102;11.772;2023-03-24T10:28:19;13.10;99.90
46117;DHT22;32591;48.102;11.772;2023-03-24T10:30:50;13.10;99.90
46117;DHT22;32591;48.102;11.772;2023-03-24T10:33:19;13.20;99.90
46117;DHT22;32591;48.102;11.772;2023-03-24T10:35:54;13.20;99.90
46117;DHT22;32591;48.102;11.772;2023-03-24T10:38:24;13.10;99.90
46117;DHT22;32591;48.102;11.772;2023-03-24T10:40:53;13.10;99.90
46117;DHT22;32591;48.102;11.772;2023-03-24T10:43:21;13.10;99.90
46117;DHT22;32591;48.102;11.772;2023-03-24T10:45:51;13.10;99.90
46117;DHT22;32591;48.102;11.772;2023-03-24T10:48:41;13.00;99.90
46117;DHT22;32591;48.102;11.772;2023-03-24T10:51:17;13.00;99.90
46117;DHT22;32591;48.102;11.772;2023-03-24T10:53:47;12.90;99.90
46117;DHT22;32591;48.102;11.772;2023-03-24T10:56:16;13.00;99.90
46117;DHT22;32591;48.102;11.772;2023-03-24T10:58:44;13.00;99.90
46117;DHT22;32591;48.102;11.772;2023-03-24T11:01:22;12.90;99.90
46117;DHT22;32591;48.102;11.772;2023-03-24T11:03:50;12.90;99.90
46117;DHT22;32591;48.102;11.772;2023-03-24T11:06:20;13.00;99.90
46117;DHT22;32591;48.102;11.772;2023-03-24T11:09:07;13.00;99.90
46117;DHT22;32591;48.102;11.772;2023-03-24T11:11:36;13.00;99.90
46117;DHT22;32591;48.102;11.772;2023-03-24T11:14:03;13.00;99.90
46117;DHT22;32591;48.102;11.772;2023-03-24T11:16:45;13.00;99.90
46117;DHT22;32591;48.102;11.772;2023-03-24T11:19:17;12.90;99.90
46117;DHT22;32591;48.102;11.772;2023-03-24T11:21:46;12.90;99.90
46117;DHT22;32591;48.102;11.772;2023-03-24T11:24:16;12.90;99.90
46117;DHT22;32591;48.102;11.772;2023-03-24T11:26:46;12.90;99.90
46117;DHT22;32591;48.102;11.772;2023-03-24T11:29:19;12.90;99.90
46117;DHT22;32591;48.102;11.772;2023-03-24T11:31:54;12.90;99.90
46117;DHT22;32591;48.102;11.772;2023-03-24T11:34:25;12.80;99.90
46117;DHT22;32591;48.102;11.772;2023-03-24T11:36:59;12.80;99.90
46117;DHT22;32591;48.102;11.772;2023-03-24T11:39:30;12.90;99.90
46117;DHT22;32591;48.102;11.772;2023-03-24T11:42:02;12.80;99.90
46117;DHT22;32591;48.102;11.772;2023-03-24T11:44:44;12.80;99.90
46117;DHT22;32591;48.102;11.772;2023-03-24T11:47:19;12.70;99.90
46117;DHT22;32591;48.102;11.772;2023-03-24T11:49:56;12.70;99.90
46117;DHT22;32591;48.102;11.772;2023-03-24T11:52:28;12.70;99.90
46117;DHT22;32591;48.102;11.772;2023-03-24T11:54:58;12.70;99.90
46117;DHT22;32591;48.102;11.772;2023-03-24T11:57:39;12.70;99.90
46117;DHT22;32591;48.102;11.772;2023-03-24T12:00:16;12.90;99.90
46117;DHT22;32591;48.102;11.772;2023-03-24T12:02:58;13.00;99.90
46117;DHT22;32591;48.102;11.772;2023-03-24T12:05:35;13.20;99.90
46117;DHT22;32591;48.102;11.772;2023-03-24T12:08:28;13.40;99.90
46117;DHT22;32591;48.102;11.772;2023-03-24T12:11:10;13.60;99.90
46117;DHT22;32591;48.102;11.772;2023-03-24T12:13:43;13.80;99.90
46117;DHT22;32591;48.102;11.772;2023-03-24T12:16:24;13.90;99.90
46117;DHT22;32591;48.102;11.772;2023-03-24T12:19:27;14.00;99.90
46117;DHT22;32591;48.102;11.772;2023-03-24T12:22:24;14.10;99.90
46117;DHT22;32591;48.102;11.772;2023-03-24T12:25:22;14.30;99.90
46117;DHT22;32591;48.102;11.772;2023-03-24T12:28:03;14.40;99.90
46117;DHT22;32591;48.102;11.772;2023-03-24T12:30:44;14.40;99.90
46117;DHT22;32591;48.102;11.772;2023-03-24T12:33:26;14.50;99.90
46117;DHT22;32591;48.102;11.772;2023-03-24T12:36:14;14.50;99.90
46117;DHT22;32591;48.102;11.772;2023-03-24T12:38:57;14.50;99.90
46117;DHT22;32591;48.102;11.772;2023-03-24T12:41:41;14.50;99.90
46117;DHT22;32591;48.102;11.772;2023-03-24T12:44:33;14.50;99.90
46117;DHT22;32591;48.102;11.772;2023-03-24T12:47:15;14.50;99.90
46117;DHT22;32591;48.102;11.772;2023-03-24T12:50:10;14.50;99.90
46117;DHT22;32591;48.102;11.772;2023-03-24T12:53:09;14.40;99.90
46117;DHT22;32591;48.102;11.772;2023-03-24T12:55:51;14.40;99.90
46117;DHT22;32591;48.102;11.772;2023-03-24T12:58:24;14.40;99.90
46117;DHT22;32591;48.102;11.772;2023-03-24T13:01:05;14.40;99.90
46117;DHT22;32591;48.102;11.772;2023-03-24T13:03:37;14.40;99.90
46117;DHT22;32591;48.102;11.772;2023-03-24T13:06:14;14.40;99.90
46117;DHT22;32591;48.102;11.772;2023-03-24T13:08:48;14.50;99.90
46117;DHT22;32591;48.102;11.772;2023-03-24T13:11:26;14.50;99.90
46117;DHT22;32591;48.102;11.772;2023-03-24T13:14:11;14.60;99.90
46117;DHT22;32591;48.102;11.772;2023-03-24T13:16:43;14.60;99.90
46117;DHT22;32591;48.102;11.772;2023-03-24T13:19:16;14.70;99.90
46117;DHT22;32591;48.102;11.772;2023-03-24T13:21:46;14.60;99.90
46117;DHT22;32591;48.102;11.772;2023-03-24T13:24:16;14.60;99.90
46117;DHT22;32591;48.102;11.772;2023-03-24T13:26:49;14.70;99.90
46117;DHT22;32591;48.102;11.772;2023-03-24T13:29:43;14.60;99.90
46117;DHT22;32591;48.102;11.772;2023-03-24T13:32:25;14.60;99.90
46117;DHT22;32591;48.102;11.772;2023-03-24T13:34:59;14.60;99.90
46117;DHT22;32591;48.102;11.772;2023-03-24T13:37:31;14.50;99.90
46117;DHT22;32591;48.102;11.772;2023-03-24T13:40:00;14.50;99.90
46117;DHT22;32591;48.102;11.772;2023-03-24T13:42:33;14.20;99.90
46117;DHT22;32591;48.102;11.772;2023-03-24T13:45:03;14.00;99.90
46117;DHT22;32591;48.102;11.772;2023-03-24T13:50:25;14.00;99.90
46117;DHT22;32591;48.102;11.772;2023-03-24T13:52:52;13.70;99.90
46117;DHT22;32591;48.102;11.772;2023-03-24T13:55:21;13.60;99.90
46117;DHT22;32591;48.102;11.772;2023-03-24T13:57:54;13.60;99.90
46117;DHT22;32591;48.102;11.772;2023-03-24T14:00:24;13.60;99.90
46117;DHT22;32591;48.102;11.772;2023-03-24T14:02:52;13.50;99.90
46117;DHT22;32591;48.102;11.772;2023-03-24T14:05:41;13.40;99.90
46117;DHT22;32591;48.102;11.772;2023-03-24T14:08:39;13.40;99.90
46117;DHT22;32591;48.102;11.772;2023-03-24T14:14:34;13.30;99.90
46117;DHT22;32591;48.102;11.772;2023-03-24T14:17:11;13.40;99.90
46117;DHT22;32591;48.102;11.772;2023-03-24T14:19:40;13.50;99.90
46117;DHT22;32591;48.102;11.772;2023-03-24T14:22:14;13.50;99.90
46117;DHT22;32591;48.102;11.772;2023-03-24T14:24:57;13.50;99.90
46117;DHT22;32591;48.102;11.772;2023-03-24T14:27:33;13.50;99.90
46117;DHT22;32591;48.102;11.772;2023-03-24T14:30:04;13.50;99.90
46117;DHT22;32591;48.102;11.772;2023-03-24T14:32:39;13.50;99.90
46117;DHT22;32591;48.102;11.772;2023-03-24T14:35:25;13.50;99.90
46117;DHT22;32591;48.102;11.772;2023-03-24T14:38:00;13.50;99.90
46117;DHT22;32591;48.102;11.772;2023-03-24T14:40:34;13.50;99.90
46117;DHT22;32591;48.102;11.772;2023-03-24T14:43:12;13.50;99.90
46117;DHT22;32591;48.102;11.772;2023-03-24T14:45:53;13.50;99.90
46117;DHT22;32591;48.102;11.772;2023-03-24T14:48:36;13.40;99.90
46117;DHT22;32591;48.102;11.772;2023-03-24T14:51:15;13.40;99.90
46117;DHT22;32591;48.102;11.772;2023-03-24T14:53:55;13.40;99.90
46117;DHT22;32591;48.102;11.772;2023-03-24T14:56:25;13.40;99.90
46117;DHT22;32591;48.102;11.772;2023-03-24T14:59:02;13.30;99.90
46117;DHT22;32591;48.102;11.772;2023-03-24T15:01:33;13.30;99.90
46117;DHT22;32591;48.102;11.772;2023-03-24T15:04:02;13.20;99.90
46117;DHT22;32591;48.102;11.772;2023-03-24T15:06:31;13.20;99.90
46117;DHT22;32591;48.102;11.772;2023-03-24T15:09:00;13.10;99.90
46117;DHT22;32591;48.102;11.772;2023-03-24T15:11:33;13.10;99.90
46117;DHT22;32591;48.102;11.772;2023-03-24T15:14:01;13.10;99.90
46117;DHT22;32591;48.102;11.772;2023-03-24T15:16:31;13.10;99.90
46117;DHT22;32591;48.102;11.772;2023-03-24T15:19:05;13.00;99.90
46117;DHT22;32591;48.102;11.772;2023-03-24T15:21:36;13.00;99.90
46117;DHT22;32591;48.102;11.772;2023-03-24T15:24:25;12.90;99.90
46117;DHT22;32591;48.102;11.772;2023-03-24T15:27:09;12.90;99.90
46117;DHT22;32591;48.102;11.772;2023-03-24T15:29:41;12.80;99.90
46117;DHT22;32591;48.102;11.772;2023-03-24T15:32:15;12.80;99.90
46117;DHT22;32591;48.102;11.772;2023-03-24T15:34:47;12.70;99.90
46117;DHT22;32591;48.102;11.772;2023-03-24T15:37:21;12.70;99.90
46117;DHT22;32591;48.102;11.772;2023-03-24T15:39:52;12.60;99.90
46117;DHT22;32591;48.102;11.772;2023-03-24T15:42:21;12.60;99.90
46117;DHT22;32591;48.102;11.772;2023-03-24T15:44:49;12.60;99.90
46117;DHT22;32591;48.102;11.772;2023-03-24T15:47:20;12.60;99.90
46117;DHT22;32591;48.102;11.772;2023-03-24T15:49:50;12.50;99.90
46117;DHT22;32591;48.102;11.772;2023-03-24T15:52:24;12.50;99.90
46117;DHT22;32591;48.102;11.772;2023-03-24T15:54:58;12.50;99.90
46117;DHT22;32591;48.102;11.772;2023-03-24T15:57:27;12.40;99.90
46117;DHT22;32591;48.102;11.772;2023-03-24T16:00:05;12.40;99.90
46117;DHT22;32591;48.102;11.772;2023-03-24T16:02:44;12.40;99.90
46117;DHT22;32591;48.102;11.772;2023-03-24T16:05:17;12.30;99.90